Карточка аэропорта URMN

Внимание!
Информация на этой странице в стадии наполнения.
Если вы не увидели какой-то информации, или заметили неточность - пожалуйста сообщите нам!
Спасибо!
Команда RU-STAFF
Название аэропортаНальчик
Название аэропорта (англ.)Nalchik
Превышение445 ft. (135.6 m.)
Координаты43°30.798', 43°38.298'
Высота перехода5000 ft
Эшелон переходаFL70 (QNH >= 977); FL80 (QNH < 977)
Коды ответчика2400-2407
Зона ОрВДРостов-на-Дону РПИ (URRV)
Данные METARURMN 082200Z 20002MPS 9999 OVC006 M02/M03 Q1026 R24/////// NOSIG RMK MT OBSC QFE732
Проноз погоды (TAF)
NOTAMshow/hide NOTAM
AWOS   TABLE

Информация о ВПП

ВПП Длина ВПП (м.) Покрытие Курс ВПП Частота ILS
062200Асфальтобетон57 
242200Асфальтобетон237110.5

Диспетчерские позиции

Позывной Наименование органа УВД Частота
URMN_TWRНальчик-Старт/Посадка118.3
URMN_APPНальчик - Подход126.9



Спутниковое изображение